Terminal Aerodrome Forecast
Issued by NWS

Home | Current Version | Previous Version | Text Only | Print | Product List | Glossary On
Versions: 1 2 3 4 5 6 7 8 9 10 11 12 13 14 15 16 17 18
000
FTUS43 KMQT 031732
TAFIWD
TAF
KIWD 031732Z 0318/0418 07005KT P6SM SCT200
     FM032300 36003KT P6SM SKC
     FM040200 15004KT P6SM SKC
     FM040800 15006KT 5SM BR SKC
     FM040900 15007KT 2SM BR SCT001
     FM041300 15006KT 6SM BR SKC
     FM041400 15007KT P6SM SCT200
      AMD LTD TO CLD VIS AND WIND=

USA.gov is the U.S. government's official web portal to all federal, state and local government web resources and services.